Time;durP1;ratioP1;P1;durP2;ratioP2;P2;SDS_P1;SDS_P2;PMS_P1;PMS_P2;Temp;Humidity;BMP_temperature;BMP_pressure;BME280_temperature;BME280_humidity;BME280_pressure;Samples;Min_cycle;Max_cycle;Signal;HPM_P1;HPM_P2
2022/02/09 00:04:54;;;;;;;6.30;1.52;;;;;;;19.01;49.71;102613.69;5013724;28;20462;-65
2022/02/09 00:07:28;;;;;;;7.68;1.77;;;;;;;18.98;49.73;102617.34;5012984;28;20036;-64
2022/02/09 00:09:53;;;;;;;5.15;1.25;;;;;;;18.96;49.46;102615.72;5013939;28;20034;-65
2022/02/09 00:12:25;;;;;;;6.93;1.73;;;;;;;18.95;49.62;102614.88;5012720;28;20030;-64
2022/02/09 00:15:17;;;;;;;7.13;1.58;;;;;;;18.93;49.86;102619.41;5013734;28;20041;-65
2022/02/09 00:20:36;;;;;;;5.88;1.50;;;;;;;18.91;49.87;102620.44;5012870;28;20026;-64
2022/02/09 00:23:39;;;;;;;7.20;1.60;;;;;;;18.90;49.78;102626.63;5013565;28;20046;-63
2022/02/09 00:34:19;;;;;;;5.35;1.40;;;;;;;18.82;49.98;102611.22;5012558;28;20496;-64
2022/02/09 00:42:31;;;;;;;7.63;1.48;;;;;;;18.77;50.08;102608.84;5012100;28;20508;-65
2022/02/09 01:39:04;;;;;;;6.38;1.58;;;;;;;18.48;50.83;102589.31;5012100;28;20484;-65
2022/02/09 01:57:38;;;;;;;;;;;;;;;18.38;50.80;102575.78;5016885;28;20088;-65
2022/02/09 02:00:07;;;;;;;4.93;1.27;;;;;;;18.39;50.81;102566.94;5015595;28;19917;-65
2022/02/09 02:02:32;;;;;;;4.53;1.15;;;;;;;18.37;50.90;102560.88;5016236;28;20084;-65
2022/02/09 02:04:58;;;;;;;6.55;1.60;;;;;;;18.37;51.07;102566.13;5015426;28;20022;-65
2022/02/09 02:07:34;;;;;;;7.03;1.40;;;;;;;18.34;50.81;102563.69;5015676;28;20041;-65
2022/02/09 02:10:08;;;;;;;6.13;1.70;;;;;;;18.36;50.63;102560.94;5016318;28;20045;-65
2022/02/09 02:13:24;;;;;;;;;;;;;;;18.31;50.88;102553.31;5015785;28;20476;-65
2022/02/09 02:16:13;;;;;;;7.70;1.40;;;;;;;18.31;51.04;102554.16;5033776;28;19913;-65
2022/02/09 02:18:38;;;;;;;5.32;1.45;;;;;;;18.30;50.83;102563.00;5015823;28;20025;-65
2022/02/09 02:24:02;;;;;;;7.07;1.30;;;;;;;18.28;50.48;102567.50;5015779;28;20128;-65
2022/02/09 02:35:10;;;;;;;6.28;1.38;;;;;;;18.25;50.68;102553.66;5015561;28;20029;-64
2022/02/09 02:40:50;;;;;;;4.93;1.58;;;;;;;18.22;50.88;102552.00;5018862;28;20100;-65
2022/02/09 02:43:43;;;;;;;7.15;1.63;;;;;;;18.21;50.88;102549.47;5018872;28;20494;-64
2022/02/09 02:46:34;;;;;;;4.95;1.30;;;;;;;18.21;51.17;102547.66;5022542;28;20045;-64
2022/02/09 03:08:29;;;;;;;7.85;1.70;;;;;;;18.15;51.38;102534.81;5022822;28;20080;-65
2022/02/09 03:13:33;;;;;;;4.15;1.52;;;;;;;18.13;51.40;102534.91;5020103;28;20044;-65
2022/02/09 03:18:47;;;;;;;4.40;1.70;;;;;;;18.13;51.56;102528.75;5014568;28;20428;-64
2022/02/09 03:21:36;;;;;;;8.38;1.60;;;;;;;18.09;51.30;102536.00;5014483;28;20034;-64
2022/02/09 03:24:10;;;;;;;5.60;1.73;;;;;;;18.11;51.30;102536.75;5014237;28;20044;-64
2022/02/09 03:27:18;;;;;;;6.15;1.42;;;;;;;18.11;51.33;102533.28;5014703;28;20045;-64
2022/02/09 03:48:38;;;;;;;4.00;1.55;;;;;;;18.04;51.42;102494.97;5013889;28;20041;-64
2022/02/09 03:54:02;;;;;;;7.75;1.70;;;;;;;18.02;51.04;102486.28;5014019;28;20030;-64
2022/02/09 03:59:01;;;;;;;7.03;1.88;;;;;;;18.01;51.01;102492.50;5013624;28;20041;-64
2022/02/09 04:01:31;;;;;;;6.97;2.03;;;;;;;18.03;51.48;102494.13;5013627;28;20038;-64
2022/02/09 04:03:56;;;;;;;6.50;1.77;;;;;;;18.05;51.86;102492.25;5013628;28;20274;-65
2022/02/09 04:06:21;;;;;;;6.60;2.10;;;;;;;18.08;51.44;102500.00;5012281;28;20044;-64
2022/02/09 04:09:00;;;;;;;4.90;1.75;;;;;;;18.10;51.50;102494.63;5013767;28;20345;-64
2022/02/09 04:11:50;;;;;;;6.95;2.03;;;;;;;18.13;51.56;102497.09;5013038;28;20048;-64
2022/02/09 04:41:21;;;;;;;5.55;1.48;;;;;;;18.21;50.39;102494.03;5012148;28;20048;-64
2022/02/09 04:44:11;;;;;;;4.60;1.42;;;;;;;18.21;50.16;102499.31;5013226;28;20034;-64
2022/02/09 04:52:23;;;;;;;6.43;1.50;;;;;;;18.20;50.45;102489.69;5013286;28;20041;-65
2022/02/09 04:54:55;;;;;;;5.93;1.42;;;;;;;18.21;50.80;102483.47;5012697;28;20037;-64
2022/02/09 05:00:13;;;;;;;;;;;;;;;18.21;51.11;102478.22;5013822;28;20030;-65
2022/02/09 05:03:24;;;;;;;5.55;1.63;;;;;;;18.23;50.84;102469.28;5012087;28;20262;-65
2022/02/09 05:27:15;;;;;;;7.20;1.45;;;;;;;18.26;49.82;102490.22;5014579;28;20037;-65
2022/02/09 05:29:40;;;;;;;5.50;1.55;;;;;;;18.23;50.06;102495.66;5011880;28;20042;-65
2022/02/09 05:32:06;;;;;;;3.53;0.97;;;;;;;18.23;49.89;102486.88;5012508;28;20026;-65
2022/02/09 05:34:31;;;;;;;5.07;1.00;;;;;;;18.23;49.78;102486.88;5012565;28;20283;-65
2022/02/09 05:37:00;;;;;;;5.37;1.30;;;;;;;18.23;50.00;102492.16;5012016;28;20037;-65
2022/02/09 05:39:25;;;;;;;4.65;1.10;;;;;;;18.24;49.75;102488.59;5012135;28;20283;-65
2022/02/09 05:41:51;;;;;;;4.00;1.13;;;;;;;18.23;49.79;102478.97;5012614;28;20442;-65
2022/02/09 05:44:16;;;;;;;5.38;1.20;;;;;;;18.22;49.86;102474.66;5011103;28;20291;-65
2022/02/09 05:52:30;;;;;;;4.25;1.30;;;;;;;18.23;50.64;102471.03;5011778;28;20275;-65
2022/02/09 05:59:46;;;;;;;6.53;1.23;;;;;;;18.24;50.70;102463.03;5012382;28;20033;-66
2022/02/09 06:02:12;;;;;;;5.43;1.35;;;;;;;18.26;50.95;102457.69;5011923;28;20295;-65
2022/02/09 06:04:38;;;;;;;5.80;1.60;;;;;;;18.26;50.96;102462.97;5011318;28;20038;-65
2022/02/09 06:07:04;;;;;;;4.97;1.50;;;;;;;18.27;51.04;102454.97;5012173;28;20060;-65
2022/02/09 06:09:30;;;;;;;6.30;1.33;;;;;;;18.27;51.01;102454.97;5011718;28;20042;-65
2022/02/09 06:12:34;;;;;;;6.15;1.40;;;;;;;18.28;51.68;102451.38;5011777;28;20069;-65
2022/02/09 06:20:24;;;;;;;6.32;1.33;;;;;;;18.32;52.07;102454.69;5011023;28;20414;-65
2022/02/09 06:22:49;;;;;;;5.38;1.13;;;;;;;18.34;51.86;102450.19;5012111;28;20053;-65
2022/02/09 06:25:15;;;;;;;7.87;1.30;;;;;;;18.38;52.36;102464.06;5010827;28;20022;-65
2022/02/09 06:27:40;;;;;;;9.43;1.50;;;;;;;18.39;52.57;102456.06;5012467;28;20278;-65
2022/02/09 06:30:06;;;;;;;6.83;1.47;;;;;;;18.40;52.74;102470.09;5015501;28;20124;-65
2022/02/09 06:32:31;;;;;;;5.30;1.17;;;;;;;18.39;52.86;102466.63;5014467;28;20375;-65
2022/02/09 06:34:58;;;;;;;9.38;1.77;;;;;;;18.43;52.73;102481.34;5015700;28;20030;-64
2022/02/09 06:37:27;;;;;;;7.75;1.50;;;;;;;18.45;52.35;102483.88;5014995;28;20045;-65
2022/02/09 06:39:58;;;;;;;5.47;1.17;;;;;;;18.47;52.55;102482.03;5014889;28;20081;-65
2022/02/09 06:42:24;;;;;;;5.20;1.30;;;;;;;18.49;52.56;102467.78;5014941;28;20080;-64
2022/02/09 06:44:57;;;;;;;6.22;1.23;;;;;;;18.52;52.69;102477.34;5015087;28;20048;-65
2022/02/09 06:47:25;;;;;;;5.15;1.30;;;;;;;18.54;52.63;102477.25;5014318;28;20038;-64
2022/02/09 06:49:58;;;;;;;4.97;1.20;;;;;;;18.55;52.98;102471.88;5015143;28;20470;-65
2022/02/09 06:52:24;;;;;;;6.20;1.25;;;;;;;18.56;52.25;102476.19;5014814;28;20069;-65
2022/02/09 06:57:46;;;;;;;6.80;1.20;;;;;;;18.60;52.20;102467.19;5015092;28;20036;-64
2022/02/09 07:00:13;;;;;;;5.25;1.15;;;;;;;18.63;52.32;102467.00;5014735;28;20036;-65
2022/02/09 07:02:41;;;;;;;5.47;1.15;;;;;;;18.65;52.51;102467.75;5014820;28;20405;-64
2022/02/09 07:05:08;;;;;;;7.55;1.88;;;;;;;18.65;52.60;102465.13;5015039;28;20037;-64
2022/02/09 07:07:33;;;;;;;7.63;1.35;;;;;;;18.68;52.17;102472.03;5014018;28;20371;-64
2022/02/09 07:09:58;;;;;;;6.87;1.37;;;;;;;18.70;52.04;102472.78;5014769;28;20029;-65
2022/02/09 07:12:23;;;;;;;5.13;1.17;;;;;;;18.70;51.88;102469.28;5014599;28;20750;-65
2022/02/09 07:14:49;;;;;;;6.93;1.83;;;;;;;18.73;52.02;102474.41;5014174;28;20466;-65
2022/02/09 07:17:15;;;;;;;6.13;1.50;;;;;;;18.73;52.54;102475.22;5014676;28;20042;-65
2022/02/09 07:19:42;;;;;;;6.63;2.00;;;;;;;18.76;52.50;102476.84;5014605;28;20033;-65
2022/02/09 07:22:12;;;;;;;5.68;1.50;;;;;;;18.74;52.85;102470.78;5013656;28;20049;-65
2022/02/09 07:24:37;;;;;;;6.78;1.50;;;;;;;18.75;51.89;102476.00;5014351;28;20482;-64
2022/02/09 07:27:25;;;;;;;5.73;1.37;;;;;;;18.75;51.28;102475.16;5014595;28;20041;-65
2022/02/09 07:29:51;;;;;;;4.53;1.02;;;;;;;18.77;51.45;102471.50;5014052;28;20275;-65
2022/02/09 07:32:18;;;;;;;5.23;1.40;;;;;;;18.78;51.02;102469.69;5014199;28;20038;-65
2022/02/09 07:34:44;;;;;;;4.80;1.10;;;;;;;18.81;51.25;102474.78;5014470;28;20294;-65
2022/02/09 07:37:09;;;;;;;5.05;1.25;;;;;;;18.83;51.45;102471.13;5013289;28;20025;-65
2022/02/09 07:39:35;;;;;;;7.70;1.40;;;;;;;18.86;51.33;102472.75;5013361;28;20033;-65
2022/02/09 07:42:09;;;;;;;6.00;1.30;;;;;;;18.87;51.72;102473.59;5014448;28;20033;-65
2022/02/09 07:44:55;;;;;;;5.63;1.40;;;;;;;18.87;51.35;102470.97;5013381;28;20050;-65
2022/02/09 07:52:50;;;;;;;5.03;1.42;;;;;;;18.90;51.57;102466.38;5014340;28;20069;-65
2022/02/09 07:55:15;;;;;;;4.95;1.45;;;;;;;18.91;51.18;102461.94;5013991;28;20033;-66
2022/02/09 07:57:40;;;;;;;6.73;1.30;;;;;;;18.94;51.43;102456.47;5013170;28;20113;-65
2022/02/09 08:00:10;;;;;;;7.85;1.88;;;;;;;18.95;51.34;102460.81;5014012;28;20169;-65
2022/02/09 08:02:35;;;;;;;5.72;1.50;;;;;;;18.96;51.41;102470.41;5013818;28;20034;-65
2022/02/09 08:05:00;;;;;;;6.00;1.48;;;;;;;18.95;51.41;102459.00;5013402;28;20382;-66
2022/02/09 08:07:28;;;;;;;7.40;1.53;;;;;;;18.96;51.62;102457.22;5013624;28;20038;-66
2022/02/09 08:09:57;;;;;;;6.53;1.55;;;;;;;18.96;51.27;102455.44;5013817;28;20271;-67
2022/02/09 08:12:33;;;;;;;4.80;1.40;;;;;;;18.97;51.32;102458.91;5012562;28;20034;-67
2022/02/09 08:23:38;;;;;;;6.78;1.27;;;;;;;19.00;52.05;102464.03;5013866;28;20054;-66
2022/02/09 08:33:40;;;;;;;6.15;1.55;;;;;;;19.01;52.02;102458.66;5012845;28;20066;-65
2022/02/09 08:36:05;;;;;;;5.93;1.67;;;;;;;19.00;52.29;102464.88;5013509;28;20058;-66
2022/02/09 08:38:31;;;;;;;6.53;1.60;;;;;;;19.01;52.00;102457.81;5013048;28;20022;-66
2022/02/09 08:40:56;;;;;;;5.68;1.40;;;;;;;19.01;51.89;102453.38;5012406;28;20026;-66
2022/02/09 08:43:22;;;;;;;6.97;1.70;;;;;;;19.01;51.58;102458.66;5012809;28;20042;-66
2022/02/09 08:45:48;;;;;;;7.05;1.40;;;;;;;19.02;51.96;102464.78;5012270;28;20045;-66
2022/02/09 08:48:13;;;;;;;5.30;1.48;;;;;;;19.02;52.04;102456.84;5013238;28;20044;-66
2022/02/09 08:50:39;;;;;;;5.90;1.48;;;;;;;19.02;51.89;102460.34;5012972;28;20053;-66
2022/02/09 08:53:04;;;;;;;7.95;1.52;;;;;;;19.02;52.10;102457.69;5012480;28;20046;-66
2022/02/09 08:55:30;;;;;;;6.53;1.70;;;;;;;19.02;51.65;102456.84;5012754;28;20022;-67
2022/02/09 08:57:56;;;;;;;6.32;1.80;;;;;;;19.03;51.75;102453.28;5013068;28;20025;-66
2022/02/09 09:02:52;;;;;;;6.85;1.65;;;;;;;19.01;52.11;102453.38;5013208;28;20366;-65
2022/02/09 09:05:25;;;;;;;6.82;2.03;;;;;;;19.02;51.69;102454.22;5012768;28;20124;-65
2022/02/09 09:07:57;;;;;;;7.10;1.67;;;;;;;19.02;51.88;102448.91;5012545;28;20109;-65
2022/02/09 09:10:31;;;;;;;6.80;1.70;;;;;;;19.01;52.10;102450.72;5012540;28;20182;-65
2022/02/09 10:00:33;;;;;;;4.68;1.60;;;;;;;18.95;50.65;102469.56;5012631;28;20126;-66
2022/02/09 10:32:01;;;;;;;5.97;1.50;;;;;;;18.99;51.49;102478.16;5016109;28;20068;-64
2022/02/09 10:34:34;;;;;;;5.13;1.45;;;;;;;19.00;51.25;102485.16;5015101;28;20033;-64
2022/02/09 10:37:02;;;;;;;3.45;1.20;;;;;;;19.00;51.79;102479.88;5015823;28;20046;-64
2022/02/09 10:42:32;;;;;;;5.18;1.27;;;;;;;19.01;51.41;102479.78;5015432;28;20068;-64
2022/02/09 10:45:03;;;;;;;7.13;1.63;;;;;;;19.01;51.24;102471.03;5015399;28;20113;-65
2022/02/09 10:47:31;;;;;;;6.60;1.80;;;;;;;19.03;51.51;102479.69;5014324;28;20165;-65
2022/02/09 10:52:51;;;;;;;7.18;1.42;;;;;;;19.03;51.82;102472.63;5014713;28;20022;-65
2022/02/09 10:55:34;;;;;;;4.78;1.40;;;;;;;19.05;52.05;102467.25;5015289;28;20036;-65
2022/02/09 10:58:01;;;;;;;4.72;1.70;;;;;;;19.04;51.84;102473.44;5015502;28;20029;-64
2022/02/09 11:00:27;;;;;;;7.13;1.45;;;;;;;19.06;51.80;102476.00;5014198;28;20045;-64
2022/02/09 11:02:53;;;;;;;6.35;1.48;;;;;;;19.05;52.08;102472.53;5015070;28;20087;-65
2022/02/09 11:05:20;;;;;;;7.75;1.55;;;;;;;19.06;52.00;102473.34;5014655;28;20030;-65
2022/02/09 11:07:47;;;;;;;5.80;1.42;;;;;;;19.05;51.76;102461.94;5014407;28;20043;-66
2022/02/09 11:10:14;;;;;;;6.97;1.60;;;;;;;19.05;51.60;102472.53;5014858;28;20022;-72
2022/02/09 11:12:41;;;;;;;7.28;1.70;;;;;;;19.05;51.71;102472.53;5015060;28;20034;-66
2022/02/09 11:15:08;;;;;;;6.55;1.50;;;;;;;19.05;51.66;102463.75;5013987;28;20026;-64
2022/02/09 11:17:34;;;;;;;4.55;1.58;;;;;;;19.05;50.23;102467.25;5014741;28;20038;-66
2022/02/09 11:20:24;;;;;;;4.38;1.60;;;;;;;19.04;50.94;102462.88;5015011;28;20029;-67
2022/02/09 11:22:50;;;;;;;4.72;1.58;;;;;;;19.03;51.35;102458.56;5014086;28;20033;-66
2022/02/09 11:25:27;;;;;;;5.07;1.23;;;;;;;19.03;51.27;102459.41;5014283;28;20470;-66
2022/02/09 11:28:19;;;;;;;6.82;1.92;;;;;;;19.02;51.51;102460.34;5013944;28;20530;-66
2022/02/09 11:31:26;;;;;;;4.97;1.60;;;;;;;19.03;51.56;102469.97;5014660;28;20108;-66
2022/02/09 11:34:19;;;;;;;5.53;1.33;;;;;;;19.04;51.88;102473.44;5014574;28;20034;-67
2022/02/09 11:37:01;;;;;;;7.45;1.63;;;;;;;19.03;51.78;102467.31;5014046;28;20386;-66
2022/02/09 11:39:46;;;;;;;7.18;1.90;;;;;;;19.03;51.61;102474.41;5014257;28;20214;-66
2022/02/09 11:42:45;;;;;;;6.28;1.80;;;;;;;19.03;51.75;102477.06;5013507;28;20116;-65
2022/02/09 11:48:49;;;;;;;4.15;1.40;;;;;;;19.01;51.88;102471.88;5014142;28;20038;-65
2022/02/09 12:10:09;;;;;;;5.63;1.33;;;;;;;19.01;52.08;102449.88;5012925;28;20068;-65
2022/02/09 12:12:47;;;;;;;4.75;1.40;;;;;;;19.02;51.63;102459.50;5014434;28;20470;-68
2022/02/09 12:18:35;;;;;;;10.48;2.05;;;;;;;19.25;51.44;102439.63;5025486;28;20058;-70
2022/02/09 12:21:27;;;;;;;6.40;1.40;;;;;;;19.37;51.48;102430.91;5026487;28;20065;-69
2022/02/09 12:23:52;;;;;;;4.80;1.65;;;;;;;19.47;51.28;102427.69;5023030;28;20046;-68
2022/02/09 12:26:22;;;;;;;8.40;1.55;;;;;;;19.57;51.22;102419.09;5012959;28;20018;-67
2022/02/09 12:28:53;;;;;;;6.72;1.60;;;;;;;19.63;50.91;102412.59;5013577;28;20029;-67
2022/02/09 12:31:22;;;;;;;7.15;1.48;;;;;;;19.70;50.83;102413.06;5012808;28;20061;-66
2022/02/09 12:33:51;;;;;;;8.10;1.75;;;;;;;19.71;50.66;102415.59;5013617;28;20060;-67
2022/02/09 12:36:19;;;;;;;6.75;2.13;;;;;;;19.70;50.28;102413.06;5013051;28;20065;-64
2022/02/09 12:38:46;;;;;;;6.03;1.48;;;;;;;19.64;50.66;102422.22;5012375;28;20029;-64
2022/02/09 12:41:20;;;;;;;6.40;1.67;;;;;;;19.58;51.09;102414.66;5012757;28;20120;-64
2022/02/09 12:44:02;;;;;;;6.65;1.70;;;;;;;19.52;51.43;102407.13;5013580;28;20049;-64
2022/02/09 12:46:31;;;;;;;9.07;2.20;;;;;;;19.43;49.99;102413.00;5012130;28;20409;-65
2022/02/09 12:49:14;;;;;;;8.23;1.55;;;;;;;19.38;50.92;102413.28;5013535;28;20149;-65
2022/02/09 12:51:42;;;;;;;6.13;1.70;;;;;;;19.32;50.82;102405.72;5012938;28;20037;-66
2022/02/09 12:54:09;;;;;;;6.85;2.40;;;;;;;19.32;50.53;102405.72;5012508;28;20029;-67
2022/02/09 12:56:37;;;;;;;7.32;1.70;;;;;;;19.37;50.75;102406.28;5013427;28;20041;-67
2022/02/09 12:59:07;;;;;;;5.28;1.55;;;;;;;19.43;51.00;102399.78;5012687;28;20021;-66
2022/02/09 13:01:59;;;;;;;5.60;1.38;;;;;;;19.46;50.97;102404.88;5013070;28;20030;-66
2022/02/09 13:04:38;;;;;;;6.30;1.50;;;;;;;19.43;51.13;102399.78;5012128;28;20508;-66
2022/02/09 13:07:09;;;;;;;4.75;1.42;;;;;;;19.39;51.32;102397.31;5012238;28;20037;-66
2022/02/09 13:09:35;;;;;;;9.35;1.70;;;;;;;19.36;51.32;102399.31;5012841;28;20065;-66
2022/02/09 13:12:00;;;;;;;7.28;1.88;;;;;;;19.34;51.86;102388.84;5012872;28;20113;-66
2022/02/09 13:14:31;;;;;;;6.25;1.75;;;;;;;19.31;51.85;102390.78;5011617;28;20117;-66
2022/02/09 13:19:41;;;;;;;8.40;1.80;;;;;;;19.27;52.45;102384.03;5012511;28;20042;-66
2022/02/09 14:05:26;;;;;;;7.95;1.70;;;;;;;19.19;52.26;102360.69;5015209;28;20390;-67
2022/02/09 14:07:41;;;;;;;5.00;1.58;;;;;;;19.19;52.50;102361.53;5015703;28;20034;-67
2022/02/09 14:13:31;;;;;;;5.63;1.30;;;;;;;19.17;52.69;102355.50;5016647;28;20068;-67
2022/02/09 14:15:52;;;;;;;4.30;1.50;;;;;;;19.17;52.35;102355.50;5016427;28;20100;-65
2022/02/09 14:19:00;;;;;;;;;;;;;;;19.16;52.49;102347.69;5015152;28;20225;-67
2022/02/09 14:58:11;;;;;;;;;;;;;;;19.11;52.83;102369.09;5023715;28;19913;-67
2022/02/09 15:00:51;;;;;;;;;;;;;;;19.10;52.98;102372.66;5017489;28;20349;-67
2022/02/09 15:03:36;;;;;;;;;;;;;;;19.09;52.99;102368.34;5015898;28;19914;-67
2022/02/09 15:08:55;;;;;;;;;;;;;;;19.09;52.77;102368.34;5017837;28;20015;-67
2022/02/09 15:14:04;;;;;;;;;;;;;;;19.07;52.97;102370.22;5015255;28;19914;-66
2022/02/09 15:16:48;;;;;;;;;;;;;;;19.08;52.72;102369.28;5015018;28;19913;-65
2022/02/09 15:19:41;;;;;;;;;;;;;;;19.08;52.89;102373.72;5014891;28;19944;-65
2022/02/09 15:22:11;;;;;;;;;;;;;;;19.08;53.10;102369.28;5014846;28;20156;-66
2022/02/09 15:24:43;;;;;;;;;;;;;;;19.08;53.04;102373.72;5015145;28;19913;-66
2022/02/09 15:27:13;;;;;;;;;;;;;;;19.08;53.21;102368.44;5014056;28;19948;-66
2022/02/09 15:29:39;;;;;;;;;;;;;;;19.07;52.99;102364.09;5014923;28;19921;-66
2022/02/09 15:32:09;;;;;;;;;;;;;;;19.06;53.35;102357.97;5014956;28;20373;-65
2022/02/09 15:34:43;;;;;;;;;;;;;;;19.06;53.26;102359.75;5014431;28;20004;-65
2022/02/09 15:39:58;;;;;;;;;;;;;;;19.05;52.72;102363.34;5016393;28;20007;-66
2022/02/09 15:42:51;;;;;;;;;;;;;;;19.05;53.27;102358.91;5013607;28;20386;-66
2022/02/09 15:56:17;;;;;;;;;;;;;;;19.05;52.88;102364.19;5014286;28;19925;-66
2022/02/09 15:56:31;;;;;;;;;;;;;;;19.02;53.36;102354.63;5015438;28;20004;-65
2022/02/09 15:59:18;;;;;;;;;;;;;;;19.02;53.39;102351.16;5014431;28;19936;-66
2022/02/09 16:10:13;;;;;;;;;;;;;;;19.00;53.37;102350.41;5013889;28;19921;-66
2022/02/09 16:23:41;;;;;;;7.20;1.97;;;;;;;18.98;52.79;102339.09;5012817;28;20075;-66
2022/02/09 16:34:47;;;;;;;5.30;2.25;;;;;;;18.98;52.17;102337.31;5013382;28;20032;-64
2022/02/09 16:45:11;;;;;;;8.90;2.42;;;;;;;19.00;53.01;102327.47;5011907;28;20634;-66
2022/02/09 16:50:23;;;;;;;8.23;2.20;;;;;;;18.99;52.84;102328.44;5012897;28;20755;-65
2022/02/09 16:52:56;;;;;;;7.45;2.40;;;;;;;18.99;52.74;102325.78;5012432;28;20048;-65
2022/02/09 17:19:49;;;;;;;7.65;2.00;;;;;;;19.20;53.23;102330.66;5012087;28;20083;-66
2022/02/09 17:22:14;;;;;;;6.63;2.10;;;;;;;19.21;53.22;102333.22;5012748;28;20112;-66
2022/02/09 17:24:39;;;;;;;6.55;2.08;;;;;;;19.26;53.17;102337.38;5012836;28;20632;-66
2022/02/09 17:27:10;;;;;;;7.75;2.10;;;;;;;19.29;53.21;102339.84;5012171;28;20428;-66
2022/02/09 17:32:46;;;;;;;7.85;2.17;;;;;;;19.34;53.28;102340.38;5012447;28;20118;-67
2022/02/09 17:35:18;;;;;;;7.80;2.05;;;;;;;19.35;53.21;102335.00;5011493;28;20079;-66
2022/02/09 17:55:19;;;;;;;7.70;2.67;;;;;;;19.50;53.78;102335.84;5011296;28;20036;-66
2022/02/09 17:57:18;;;;;;;6.32;2.63;;;;;;;19.52;54.13;102335.75;5011997;28;20038;-66
2022/02/09 17:59:56;;;;;;;6.43;2.58;;;;;;;19.51;54.20;102329.59;5012276;28;20105;-66
2022/02/09 18:02:21;;;;;;;6.95;2.65;;;;;;;19.54;54.38;102332.03;5011304;28;20026;-67
2022/02/09 18:04:47;;;;;;;7.07;2.33;;;;;;;19.56;54.39;102326.66;5012435;28;20161;-66
2022/02/09 18:07:17;;;;;;;11.00;2.93;;;;;;;19.57;54.54;102310.69;5012086;28;20062;-66
2022/02/09 18:09:46;;;;;;;7.20;2.80;;;;;;;19.60;54.61;102308.78;5011506;28;20698;-66
2022/02/09 18:12:28;;;;;;;7.07;3.20;;;;;;;19.61;54.63;102310.50;5011965;28;20041;-66
2022/02/09 18:15:11;;;;;;;7.85;2.88;;;;;;;19.62;54.68;102313.03;5012388;28;20026;-67
2022/02/09 18:31:07;;;;;;;;;;;;;;;19.66;54.70;102301.31;5015539;28;20034;-67
2022/02/09 19:05:16;;;;;;;8.00;2.92;;;;;;;20.11;53.67;102269.31;5014392;28;20561;-66
2022/02/09 19:08:09;;;;;;;6.97;2.70;;;;;;;20.03;53.50;102267.19;5015173;28;20040;-66
2022/02/09 19:19:10;;;;;;;9.95;2.67;;;;;;;19.85;53.63;102255.16;5015127;28;20619;-64
2022/02/09 19:26:58;;;;;;;7.43;3.40;;;;;;;19.79;53.92;102252.91;5013918;28;20037;-65
2022/02/09 19:32:25;;;;;;;10.20;3.90;;;;;;;19.73;53.99;102249.72;5014811;28;20034;-68
2022/02/09 19:48:35;;;;;;;7.28;2.70;;;;;;;20.10;53.23;102243.78;5013472;28;20076;-67
2022/02/09 19:52:09;;;;;;;9.32;3.30;;;;;;;20.11;53.08;102248.13;5014347;28;20037;-67
2022/02/09 19:54:09;;;;;;;7.93;3.67;;;;;;;20.11;52.98;102238.38;5012669;28;20046;-67
2022/02/09 19:56:37;;;;;;;9.73;3.33;;;;;;;20.14;52.83;102242.63;5013877;28;20046;-66
2022/02/09 19:59:09;;;;;;;9.02;3.25;;;;;;;20.14;52.70;102241.78;5014014;28;20062;-66
2022/02/09 20:01:36;;;;;;;9.70;3.00;;;;;;;20.15;52.70;102239.03;5012962;28;20025;-67
2022/02/09 20:04:04;;;;;;;6.63;3.25;;;;;;;20.16;52.74;102235.44;5013824;28;20033;-67
2022/02/09 20:06:29;;;;;;;8.60;3.00;;;;;;;20.17;52.77;102233.63;5013505;28;20021;-68
2022/02/09 20:08:54;;;;;;;5.57;2.78;;;;;;;20.20;52.92;102239.56;5013103;28;20030;-67
2022/02/09 20:11:20;;;;;;;9.68;3.10;;;;;;;20.21;52.61;102241.25;5013450;28;20493;-68
2022/02/09 20:13:50;;;;;;;8.38;2.72;;;;;;;20.21;52.90;102238.59;5013918;28;20029;-68
2022/02/09 20:16:19;;;;;;;7.75;3.05;;;;;;;20.22;52.67;102240.31;5012861;28;20025;-68
2022/02/09 20:18:45;;;;;;;7.88;2.88;;;;;;;20.22;52.61;102232.38;5013626;28;20112;-68
2022/02/09 20:21:10;;;;;;;9.07;3.03;;;;;;;20.22;52.61;102228.84;5013386;28;20050;-68
2022/02/09 20:23:38;;;;;;;7.07;2.75;;;;;;;20.23;52.50;102231.41;5012774;28;20033;-68
2022/02/09 20:26:08;;;;;;;8.73;3.40;;;;;;;20.23;52.13;102236.69;5013804;28;20048;-67
2022/02/09 20:28:34;;;;;;;6.15;3.03;;;;;;;20.22;52.37;102235.00;5013712;28;20038;-68
2022/02/09 20:31:05;;;;;;;8.27;3.40;;;;;;;20.23;52.51;102241.16;5012865;28;20450;-69
2022/02/09 20:33:36;;;;;;;7.38;3.47;;;;;;;20.23;52.49;102238.50;5013181;28;20049;-66
2022/02/09 20:36:05;;;;;;;8.13;3.03;;;;;;;20.17;52.76;102242.44;5013296;28;20375;-67
2022/02/09 20:38:31;;;;;;;13.50;3.58;;;;;;;20.10;52.86;102234.03;5012839;28;20488;-66
2022/02/09 20:41:04;;;;;;;8.60;3.38;;;;;;;20.04;52.91;102236.25;5013339;28;20033;-66
2022/02/09 20:43:32;;;;;;;9.38;3.33;;;;;;;20.01;53.34;102244.41;5012115;28;20129;-66
2022/02/09 20:46:02;;;;;;;7.05;3.60;;;;;;;19.97;52.96;102245.56;5013028;28;20042;-66
2022/02/09 20:48:28;;;;;;;7.88;3.10;;;;;;;19.93;53.36;102231.69;5012591;28;20021;-66
2022/02/09 20:50:57;;;;;;;11.10;4.15;;;;;;;19.91;53.48;102236.25;5012674;28;20068;-66
2022/02/09 20:53:22;;;;;;;11.60;3.85;;;;;;;19.87;53.32;102234.75;5012953;28;20389;-66
2022/02/09 20:55:49;;;;;;;8.97;3.67;;;;;;;19.87;53.54;102224.19;5013350;28;20504;-65
2022/02/09 20:58:16;;;;;;;8.63;2.75;;;;;;;19.94;53.54;102225.44;5012084;28;20847;-65
2022/02/09 21:00:48;;;;;;;8.68;2.47;;;;;;;20.06;53.52;102229.06;5013249;28;20544;-67
2022/02/09 21:03:23;;;;;;;6.43;2.90;;;;;;;20.16;53.64;102224.84;5012620;28;20080;-67
2022/02/09 21:08:32;;;;;;;7.75;2.35;;;;;;;20.37;53.02;102229.63;5012948;28;20041;-68
2022/02/09 21:13:42;;;;;;;8.75;2.58;;;;;;;20.48;52.27;102225.25;5011856;28;20049;-67
2022/02/09 21:19:04;;;;;;;10.52;2.50;;;;;;;20.59;50.50;102216.56;5012317;28;20071;-69
2022/02/09 21:21:59;;;;;;;8.95;2.80;;;;;;;20.60;51.59;102218.28;5012695;28;20033;-72
2022/02/09 21:24:58;;;;;;;6.18;2.47;;;;;;;20.62;51.38;102205.75;5012940;28;20030;-71
2022/02/09 21:33:38;;;;;;;6.80;2.30;;;;;;;20.62;51.31;102203.09;5012275;28;20040;-69
2022/02/09 21:44:29;;;;;;;8.10;2.33;;;;;;;20.63;51.48;102196.00;5012750;28;20045;-69
2022/02/09 21:54:43;;;;;;;9.90;2.35;;;;;;;20.19;51.78;102187.59;5011635;28;20057;-68
2022/02/09 21:59:58;;;;;;;7.40;2.63;;;;;;;20.03;52.12;102181.66;5014812;28;20096;-68
2022/02/09 22:19:30;;;;;;;6.88;2.80;;;;;;;19.70;53.00;102159.97;5016462;28;20076;-68
2022/02/09 22:25:28;;;;;;;7.73;2.60;;;;;;;19.64;52.78;102155.09;5015859;28;20097;-71
2022/02/09 22:27:27;;;;;;;6.68;2.20;;;;;;;19.62;53.10;102150.88;5015882;28;20356;-68
2022/02/09 22:54:59;;;;;;;9.73;2.97;;;;;;;19.40;52.68;102132.00;5014326;28;20045;-67
2022/02/09 22:57:41;;;;;;;6.88;2.50;;;;;;;19.38;52.67;102128.59;5014166;28;20041;-68
2022/02/09 23:00:15;;;;;;;6.95;2.88;;;;;;;19.35;52.88;102115.59;5015367;28;20034;-67
2022/02/09 23:02:46;;;;;;;7.10;2.80;;;;;;;19.33;52.92;102114.84;5015150;28;20117;-68
2022/02/09 23:05:40;;;;;;;6.75;2.25;;;;;;;19.32;52.71;102109.66;5014291;28;20089;-68
2022/02/09 23:08:30;;;;;;;6.25;2.40;;;;;;;19.30;52.67;102112.41;5015184;28;20462;-68
2022/02/09 23:13:45;;;;;;;6.43;2.30;;;;;;;19.27;52.70;102106.50;5013902;28;20045;-67
2022/02/09 23:22:03;;;;;;;6.68;2.38;;;;;;;19.20;52.59;102088.41;5014959;28;20045;-67
2022/02/09 23:24:53;;;;;;;7.18;2.45;;;;;;;19.19;52.74;102097.25;5014328;28;20029;-67
2022/02/09 23:28:04;;;;;;;6.88;2.38;;;;;;;19.17;52.35;102088.59;5013748;28;20041;-67
2022/02/09 23:55:31;;;;;;;7.30;2.85;;;;;;;19.03;52.22;102072.81;5013616;28;20113;-68
2022/02/09 23:58:21;;;;;;;5.82;2.10;;;;;;;19.02;52.13;102065.81;5014487;28;20058;-68
